logo dgac
Lunes 20 de Mayo del 2019
Buscar por aerodromo o helipuerto
Ingrese nombre de aeródromo, localidad o designador OACI:
TAF: TAF SCQP 201051Z 2012/2112 18008KT CAVOK TX14/2020Z TN00/2112Z PROB40 TEMPO 2012/2013 VRB02KT 1000 BCFG BKN010 BECMG 2016/2018 17013KT BECMG 2022/2024 14010KT
TAF del 20/05/2019 a las 10:51 UTC
Período de validez: desde el 20 a las 12:00 UTC hasta el 21 a las 12:00 UTC
Viento: dirección 180 grados, velocidad 8 nudos
Visibilidad: 10 km o más,
    sin nubes bajo los 5.000 pies o bajo del MSA (Mínimo de Seguridad del Aeródromo),
    sin cumulonimbus, y sin fenómenos de tiempo significativo en el aeródromo o alrededores
Temperatura máxima: 14ºC el 20 a las 20:00 UTC
Temperatura mínima: 0ºC el 21 a las 12:00 UTC
Entre las 12:00 UTC del 20 y las 13:00 UTC del 20 (de vez en cuando) , hay 40% de probabilidad de que:
Viento: dirección variable, velocidad 2 nudos
Visibilidad: 1000 metros
Bancos de Niebla
Nubes: Nublado a 1000 pies sobre el nivel del aeródromo
Se espera un cambio entre las 16:00 UTC del 20 y las 18:00 UTC del 20, :
Viento: dirección 170 grados, velocidad 13 nudos
Se espera un cambio entre las 22:00 UTC del 20 y las 24:00 UTC del 20, :
Viento: dirección 140 grados, velocidad 10 nudos